createdAt,value
2019-01-24T00:00:17.637Z,30.20
2019-01-24T00:02:40.045Z,29.47
2019-01-24T00:05:01.248Z,29.37
2019-01-24T00:07:22.446Z,29.47
2019-01-24T00:09:43.679Z,29.13
2019-01-24T00:12:04.893Z,28.83
2019-01-24T00:14:26.096Z,30.80
2019-01-24T00:16:47.399Z,30.27
2019-01-24T00:19:08.612Z,30.77
2019-01-24T00:21:29.930Z,30.03
2019-01-24T00:23:51.140Z,30.03
2019-01-24T00:26:12.568Z,30.47
2019-01-24T00:28:34.793Z,29.03
2019-01-24T00:30:55.990Z,30.67
2019-01-24T00:33:17.181Z,28.97
2019-01-24T00:35:39.674Z,30.00
2019-01-24T00:38:00.923Z,27.80
2019-01-24T00:40:22.107Z,29.83
2019-01-24T00:42:43.319Z,31.47
2019-01-24T00:45:06.439Z,30.90
2019-01-24T00:47:27.683Z,30.73
2019-01-24T00:49:48.864Z,30.87
2019-01-24T00:52:10.068Z,30.87
2019-01-24T00:54:31.278Z,28.33
2019-01-24T00:56:52.474Z,29.43
2019-01-24T00:59:13.686Z,29.30
2019-01-24T01:01:34.873Z,29.57
2019-01-24T01:03:56.428Z,29.80
2019-01-24T01:06:17.722Z,28.00
2019-01-24T01:08:38.928Z,27.73
2019-01-24T01:11:00.302Z,27.60
2019-01-24T01:13:21.512Z,29.00
2019-01-24T01:15:42.702Z,28.10
2019-01-24T01:18:03.980Z,28.00
2019-01-24T01:20:25.162Z,27.17
2019-01-24T01:22:46.361Z,28.37
2019-01-24T01:25:09.877Z,30.20
2019-01-24T01:27:31.070Z,29.60
2019-01-24T01:29:52.289Z,29.03
2019-01-24T01:32:13.482Z,27.77
2019-01-24T01:34:36.367Z,28.20
2019-01-24T01:36:57.817Z,28.83
2019-01-24T01:39:19.014Z,28.37
2019-01-24T01:41:40.228Z,29.97
2019-01-24T01:44:01.435Z,29.23
2019-01-24T01:46:22.635Z,28.10
2019-01-24T01:48:43.838Z,28.83
2019-01-24T01:51:05.034Z,27.30
2019-01-24T01:53:26.222Z,27.40
2019-01-24T01:55:47.451Z,28.90
2019-01-24T01:58:28.614Z,29.03
2019-01-24T02:00:49.818Z,27.07
2019-01-24T02:03:11.019Z,28.00
2019-01-24T02:05:32.223Z,29.00
2019-01-24T02:07:53.434Z,28.57
2019-01-24T02:10:17.053Z,29.17
2019-01-24T02:12:38.263Z,28.70
2019-01-24T02:14:59.490Z,28.53
2019-01-24T02:17:20.724Z,28.67
2019-01-24T02:19:42.028Z,28.07
2019-01-24T02:22:03.255Z,29.03
2019-01-24T02:24:24.458Z,27.80
2019-01-24T02:26:45.668Z,28.30
2019-01-24T02:29:07.138Z,28.63
2019-01-24T02:31:28.457Z,28.63
2019-01-24T02:33:49.658Z,29.60
2019-01-24T02:36:10.870Z,27.67
2019-01-24T02:38:32.071Z,28.87
2019-01-24T02:40:53.305Z,29.00
2019-01-24T02:43:14.499Z,27.43
2019-01-24T02:45:35.921Z,28.83
2019-01-24T02:47:57.123Z,29.47
2019-01-24T02:50:20.607Z,28.23
2019-01-24T02:52:41.936Z,28.40
2019-01-24T02:55:23.037Z,29.63
2019-01-24T02:57:44.250Z,28.50
2019-01-24T03:00:11.917Z,27.33
2019-01-24T03:02:33.127Z,27.83
2019-01-24T03:04:57.072Z,27.87
2019-01-24T03:07:17.458Z,27.53
2019-01-24T03:09:38.744Z,28.57
2019-01-24T03:11:59.963Z,28.57
2019-01-24T03:14:21.168Z,27.87
2019-01-24T03:16:42.390Z,28.57
2019-01-24T03:19:03.654Z,28.00
2019-01-24T03:21:24.866Z,27.90
2019-01-24T03:23:46.049Z,29.60
2019-01-24T03:26:07.271Z,29.30
2019-01-24T03:28:28.459Z,29.53
2019-01-24T03:30:49.669Z,28.80
2019-01-24T03:33:11.954Z,30.53
2019-01-24T03:35:33.177Z,30.43
2019-01-24T03:37:54.357Z,30.00
2019-01-24T03:40:15.613Z,30.17
2019-01-24T03:42:36.885Z,28.57
2019-01-24T03:44:58.085Z,28.97
2019-01-24T03:47:19.282Z,29.57
2019-01-24T03:49:40.513Z,29.07
2019-01-24T03:52:01.778Z,28.83
2019-01-24T03:54:22.968Z,28.93
2019-01-24T03:56:44.177Z,29.27
2019-01-24T03:59:05.394Z,28.83
2019-01-24T04:01:26.592Z,29.77
2019-01-24T04:03:47.807Z,29.23
2019-01-24T04:06:09.012Z,28.17
2019-01-24T04:08:30.205Z,29.10
2019-01-24T04:10:51.420Z,29.17
2019-01-24T04:13:12.618Z,28.53
2019-01-24T04:15:33.924Z,29.53
2019-01-24T04:17:55.123Z,28.97
2019-01-24T04:20:16.317Z,27.77
2019-01-24T04:22:37.542Z,29.63
2019-01-24T04:24:58.812Z,30.50
2019-01-24T04:27:20.034Z,29.63
2019-01-24T04:29:41.218Z,30.10
2019-01-24T04:32:02.442Z,28.40
2019-01-24T04:34:23.704Z,30.73
2019-01-24T04:36:44.924Z,29.67
2019-01-24T04:39:06.227Z,29.67
2019-01-24T04:41:27.428Z,29.90
2019-01-24T04:43:48.616Z,29.70
2019-01-24T04:46:09.850Z,30.30
2019-01-24T04:48:31.055Z,30.77
2019-01-24T04:50:52.969Z,30.57
2019-01-24T04:53:14.343Z,30.80
2019-01-24T04:55:35.568Z,28.93
2019-01-24T04:57:56.896Z,28.37
2019-01-24T05:00:20.694Z,29.57
2019-01-24T05:02:42.016Z,29.80
2019-01-24T05:05:03.537Z,28.57
2019-01-24T05:07:25.136Z,26.97
2019-01-24T05:09:46.500Z,29.13
2019-01-24T05:12:07.715Z,27.23
2019-01-24T05:14:28.914Z,27.60
2019-01-24T05:16:50.203Z,28.47
2019-01-24T05:19:11.424Z,28.50
2019-01-24T05:21:33.669Z,30.80
2019-01-24T05:23:54.975Z,28.70
2019-01-24T05:26:16.227Z,28.63
2019-01-24T05:28:37.584Z,30.00
2019-01-24T05:30:58.892Z,28.37
2019-01-24T05:33:20.236Z,28.57
2019-01-24T05:35:41.439Z,28.60
2019-01-24T05:38:02.742Z,29.33
2019-01-24T05:40:24.151Z,29.37
2019-01-24T05:42:45.482Z,27.63
2019-01-24T05:45:12.145Z,30.37
2019-01-24T05:47:33.472Z,30.00
2019-01-24T05:49:54.776Z,29.77
2019-01-24T05:52:19.771Z,27.77
2019-01-24T05:54:39.114Z,28.30
2019-01-24T05:57:00.358Z,28.10
2019-01-24T05:59:21.558Z,27.77
2019-01-24T06:01:43.370Z,27.90
2019-01-24T06:04:05.888Z,29.03
2019-01-24T06:06:27.098Z,29.50
2019-01-24T06:08:48.307Z,29.50
2019-01-24T06:11:09.495Z,29.87
2019-01-24T06:13:30.709Z,30.63
2019-01-24T06:15:51.918Z,28.67
2019-01-24T06:18:13.168Z,32.00
2019-01-24T06:20:34.369Z,29.57
2019-01-24T06:22:55.568Z,29.93
2019-01-24T06:25:16.790Z,117.37
2019-01-24T06:27:38.120Z,60.27
2019-01-24T06:29:59.320Z,53.40
2019-01-24T06:32:20.813Z,30.97
2019-01-24T06:34:42.021Z,29.60
2019-01-24T06:37:03.244Z,28.73
2019-01-24T06:39:24.450Z,29.93
2019-01-24T06:41:45.654Z,30.27
2019-01-24T06:44:06.893Z,28.40
2019-01-24T06:46:28.227Z,29.40
2019-01-24T06:48:49.446Z,30.00
2019-01-24T06:51:10.647Z,29.30
2019-01-24T06:53:31.860Z,29.70
2019-01-24T06:55:53.067Z,26.67
2019-01-24T06:58:14.280Z,25.67
2019-01-24T07:00:35.472Z,26.83
2019-01-24T07:02:56.710Z,28.53
2019-01-24T07:05:18.024Z,27.73
2019-01-24T07:07:39.339Z,27.30
2019-01-24T07:10:04.024Z,27.43
2019-01-24T07:12:25.258Z,26.23
2019-01-24T07:14:46.526Z,27.63
2019-01-24T07:17:07.734Z,27.63
2019-01-24T07:19:28.941Z,27.77
2019-01-24T07:21:50.135Z,26.93
2019-01-24T07:24:11.358Z,26.50
2019-01-24T07:26:32.566Z,26.97
2019-01-24T07:28:53.766Z,26.73
2019-01-24T07:31:14.961Z,27.87
2019-01-24T07:33:36.171Z,27.63
2019-01-24T07:36:02.142Z,28.77
2019-01-24T07:38:20.516Z,28.47
2019-01-24T07:40:41.716Z,29.03
2019-01-24T07:43:03.011Z,29.50
2019-01-24T07:45:27.388Z,29.70
2019-01-24T07:47:48.679Z,28.90
2019-01-24T07:50:11.899Z,28.90
2019-01-24T07:52:33.094Z,30.73
2019-01-24T07:54:54.303Z,30.53
2019-01-24T07:57:15.867Z,30.77
2019-01-24T07:59:37.085Z,31.30
2019-01-24T08:01:58.300Z,31.03
2019-01-24T08:04:19.526Z,32.33
2019-01-24T08:06:40.718Z,31.13
2019-01-24T08:09:03.723Z,32.13
2019-01-24T08:11:24.927Z,30.93
2019-01-24T08:13:46.154Z,30.33
2019-01-24T08:16:07.328Z,29.20
2019-01-24T08:18:28.535Z,30.33
2019-01-24T08:20:49.777Z,31.90
2019-01-24T08:23:11.030Z,30.73
2019-01-24T08:25:32.231Z,30.67
2019-01-24T08:27:53.446Z,31.97
2019-01-24T08:30:21.479Z,29.73
2019-01-24T08:32:42.670Z,31.00
2019-01-24T08:35:05.698Z,29.73
2019-01-24T08:37:26.905Z,30.70
2019-01-24T08:39:48.113Z,31.17
2019-01-24T08:42:09.365Z,30.47
2019-01-24T08:44:30.574Z,31.03
2019-01-24T08:46:51.807Z,31.30
2019-01-24T08:49:13.027Z,30.03
2019-01-24T08:51:34.228Z,29.80
2019-01-24T08:53:55.431Z,29.23
2019-01-24T08:56:16.641Z,31.03
2019-01-24T08:58:37.838Z,31.30
2019-01-24T09:00:59.056Z,30.63
2019-01-24T09:03:20.313Z,29.80
2019-01-24T09:05:41.522Z,31.00
2019-01-24T09:08:03.407Z,30.97
2019-01-24T09:10:30.050Z,30.60
2019-01-24T09:12:51.232Z,32.40
2019-01-24T09:15:12.512Z,33.03
2019-01-24T09:17:33.726Z,30.97
2019-01-24T09:19:54.915Z,32.93
2019-01-24T09:22:16.123Z,32.30
2019-01-24T09:24:37.322Z,31.20
2019-01-24T09:26:58.523Z,31.47
2019-01-24T09:29:19.719Z,31.47
2019-01-24T09:31:40.988Z,30.97
2019-01-24T09:34:02.238Z,31.27
2019-01-24T09:36:29.098Z,31.67
2019-01-24T09:38:46.545Z,31.17
2019-01-24T09:41:07.763Z,32.27
2019-01-24T09:43:28.970Z,31.77
2019-01-24T09:45:50.173Z,30.13
2019-01-24T09:48:11.382Z,32.07
2019-01-24T09:50:33.057Z,29.47
2019-01-24T09:52:54.268Z,30.27
2019-01-24T09:55:15.475Z,29.27
2019-01-24T09:57:36.699Z,30.73
2019-01-24T09:59:57.896Z,30.70
2019-01-24T10:02:19.128Z,30.70
2019-01-24T10:04:40.350Z,29.37
2019-01-24T10:07:01.577Z,31.43
2019-01-24T10:09:24.152Z,30.17
2019-01-24T10:11:45.369Z,29.50
2019-01-24T10:14:06.577Z,29.10
2019-01-24T10:16:27.800Z,29.80
2019-01-24T10:18:49.044Z,32.30
2019-01-24T10:21:10.254Z,30.80
2019-01-24T10:23:31.458Z,31.00
2019-01-24T10:25:52.650Z,31.43
2019-01-24T10:28:13.866Z,30.80
2019-01-24T10:30:35.126Z,30.30
2019-01-24T10:32:57.339Z,32.87
2019-01-24T10:35:18.540Z,31.63
2019-01-24T10:37:39.751Z,31.10
2019-01-24T10:40:01.161Z,31.50
2019-01-24T10:42:22.387Z,31.67
2019-01-24T10:44:43.632Z,30.40
2019-01-24T10:47:04.960Z,30.87
2019-01-24T10:49:26.153Z,31.17
2019-01-24T10:51:47.387Z,31.03
2019-01-24T10:54:08.590Z,31.03
2019-01-24T10:56:29.780Z,31.83
2019-01-24T10:58:51.013Z,31.50
2019-01-24T11:01:13.409Z,31.67
2019-01-24T11:03:34.623Z,30.57
2019-01-24T11:05:55.814Z,31.87
2019-01-24T11:08:17.031Z,30.57
2019-01-24T11:10:38.217Z,28.57
2019-01-24T11:12:59.425Z,30.37
2019-01-24T11:15:23.322Z,30.10
2019-01-24T11:17:44.802Z,29.27
2019-01-24T11:20:09.806Z,30.43
2019-01-24T11:22:31.025Z,29.57
2019-01-24T11:24:52.239Z,31.67
2019-01-24T11:27:13.851Z,29.13
2019-01-24T11:29:35.767Z,29.50
2019-01-24T11:31:57.039Z,31.43
2019-01-24T11:34:18.258Z,29.93
2019-01-24T11:36:39.489Z,29.83
2019-01-24T11:39:00.719Z,29.20
2019-01-24T11:41:21.944Z,29.40
2019-01-24T11:43:43.258Z,30.10
2019-01-24T11:46:04.461Z,30.07
2019-01-24T11:48:25.695Z,28.90
2019-01-24T11:50:46.910Z,30.23
2019-01-24T11:53:08.221Z,28.43
2019-01-24T11:55:29.427Z,29.83
2019-01-24T11:57:50.651Z,29.73
2019-01-24T12:00:22.200Z,29.80
2019-01-24T12:02:43.414Z,29.87
2019-01-24T12:05:08.405Z,31.33
2019-01-24T12:07:29.637Z,27.47
2019-01-24T12:09:50.827Z,30.23
2019-01-24T12:12:12.048Z,29.50
2019-01-24T12:14:33.256Z,29.20
2019-01-24T12:16:54.524Z,27.87
2019-01-24T12:19:15.749Z,28.07
2019-01-24T12:21:36.951Z,28.63
2019-01-24T12:23:58.196Z,29.07
2019-01-24T12:26:19.383Z,30.30
2019-01-24T12:28:40.608Z,28.53
2019-01-24T12:31:01.819Z,29.70
2019-01-24T12:33:23.485Z,27.97
2019-01-24T12:35:44.705Z,27.70
2019-01-24T12:38:05.922Z,30.53
2019-01-24T12:40:27.129Z,27.00
2019-01-24T12:42:48.350Z,28.40
2019-01-24T12:45:15.351Z,27.90
2019-01-24T12:47:36.894Z,27.20
2019-01-24T12:49:58.089Z,27.40
2019-01-24T12:52:19.292Z,28.47
2019-01-24T12:54:40.502Z,29.73
2019-01-24T12:57:01.795Z,28.37
2019-01-24T12:59:23.009Z,28.23
2019-01-24T13:01:44.235Z,28.23
2019-01-24T13:04:05.561Z,27.40
2019-01-24T13:06:26.778Z,27.67
2019-01-24T13:08:47.994Z,28.90
2019-01-24T13:11:09.205Z,29.10
2019-01-24T13:13:30.536Z,29.77
2019-01-24T13:15:51.712Z,31.23
2019-01-24T13:18:12.938Z,29.27
2019-01-24T13:20:34.131Z,28.13
2019-01-24T13:22:55.353Z,29.07
2019-01-24T13:25:22.665Z,30.57
2019-01-24T13:27:43.900Z,29.10
2019-01-24T13:30:11.332Z,29.57
2019-01-24T13:32:32.549Z,27.80
2019-01-24T13:34:53.752Z,29.27
2019-01-24T13:37:14.961Z,29.03
2019-01-24T13:39:36.170Z,29.23
2019-01-24T13:41:57.419Z,30.57
2019-01-24T13:44:20.287Z,28.90
2019-01-24T13:46:42.031Z,29.13
2019-01-24T13:49:03.239Z,28.50
2019-01-24T13:51:24.450Z,29.70
2019-01-24T13:53:45.657Z,29.70
2019-01-24T13:56:06.875Z,30.50
2019-01-24T13:58:28.085Z,30.17
2019-01-24T14:00:49.549Z,31.17
2019-01-24T14:03:17.451Z,29.60
2019-01-24T14:05:38.691Z,32.10
2019-01-24T14:07:59.905Z,31.00
2019-01-24T14:10:21.108Z,31.07
2019-01-24T14:12:42.326Z,28.93
2019-01-24T14:15:10.354Z,28.67
2019-01-24T14:17:31.559Z,28.03
2019-01-24T14:19:52.770Z,28.57
2019-01-24T14:22:13.964Z,28.53
2019-01-24T14:24:35.207Z,27.63
2019-01-24T14:26:56.433Z,28.27
2019-01-24T14:29:17.687Z,28.43
2019-01-24T14:31:38.902Z,28.37
2019-01-24T14:34:00.092Z,29.47
2019-01-24T14:36:25.314Z,28.17
2019-01-24T14:38:44.394Z,28.53
2019-01-24T14:41:05.602Z,27.90
2019-01-24T14:43:26.810Z,29.37
2019-01-24T14:45:48.039Z,29.27
2019-01-24T14:48:09.313Z,28.40
2019-01-24T14:50:30.536Z,28.50
2019-01-24T14:52:51.831Z,30.20
2019-01-24T14:55:13.036Z,38.87
2019-01-24T14:57:34.236Z,38.03
2019-01-24T14:59:55.481Z,29.43
2019-01-24T15:02:16.691Z,29.33
2019-01-24T15:04:37.915Z,30.50
2019-01-24T15:06:59.113Z,28.90
2019-01-24T15:09:20.363Z,29.30
2019-01-24T15:11:41.681Z,31.07
2019-01-24T15:14:02.883Z,29.43
2019-01-24T15:16:24.102Z,30.90
2019-01-24T15:18:45.424Z,30.77
2019-01-24T15:21:06.663Z,28.77
2019-01-24T15:23:49.422Z,29.03
2019-01-24T15:26:10.672Z,28.37
2019-01-24T15:28:31.917Z,29.73
2019-01-24T15:30:53.215Z,29.60
2019-01-24T15:33:14.429Z,27.83
2019-01-24T15:36:11.372Z,32.17
2019-01-24T15:38:32.570Z,29.07
2019-01-24T15:41:06.073Z,27.70
2019-01-24T15:43:27.266Z,30.30
2019-01-24T15:45:48.481Z,29.43
2019-01-24T15:48:09.680Z,30.83
2019-01-24T15:50:34.070Z,30.37
2019-01-24T15:52:55.300Z,30.80
2019-01-24T15:55:16.646Z,31.40
2019-01-24T15:57:37.913Z,31.03
2019-01-24T15:59:59.138Z,30.93
2019-01-24T16:02:20.351Z,30.17
2019-01-24T16:04:41.650Z,30.33
2019-01-24T16:07:02.889Z,32.20
2019-01-24T16:09:24.172Z,31.97
2019-01-24T16:11:45.428Z,32.47
2019-01-24T16:14:08.077Z,33.50
2019-01-24T16:16:29.354Z,30.03
2019-01-24T16:18:50.847Z,32.40
2019-01-24T16:21:12.207Z,32.50
2019-01-24T16:23:33.406Z,31.60
2019-01-24T16:25:54.637Z,34.97
2019-01-24T16:28:16.036Z,32.07
2019-01-24T16:30:37.269Z,33.17
2019-01-24T16:32:58.828Z,33.23
2019-01-24T16:35:20.131Z,32.83
2019-01-24T16:37:41.758Z,31.27
2019-01-24T16:40:07.058Z,30.97
2019-01-24T16:42:28.619Z,28.60
2019-01-24T16:44:50.344Z,30.63
2019-01-24T16:47:11.770Z,30.27
2019-01-24T16:49:33.112Z,30.93
2019-01-24T16:51:57.425Z,31.17
2019-01-24T16:54:18.771Z,31.20
2019-01-24T16:56:40.217Z,32.93
2019-01-24T16:59:01.809Z,31.47
2019-01-24T17:01:23.478Z,32.10
2019-01-24T17:03:44.846Z,33.43
2019-01-24T17:06:06.498Z,32.53
2019-01-24T17:08:27.797Z,36.67
2019-01-24T17:10:49.119Z,34.43
2019-01-24T17:13:10.413Z,35.83
2019-01-24T17:15:31.640Z,35.93
2019-01-24T17:17:54.220Z,36.33
2019-01-24T17:20:26.824Z,38.03
2019-01-24T17:22:48.607Z,38.40
2019-01-24T17:25:11.921Z,40.43
2019-01-24T17:27:33.247Z,49.17
2019-01-24T17:29:55.491Z,41.10
2019-01-24T17:32:17.130Z,38.07
2019-01-24T17:34:38.488Z,39.87
2019-01-24T17:36:59.797Z,41.53
2019-01-24T17:39:20.994Z,39.10
2019-01-24T17:41:42.214Z,40.47
2019-01-24T17:44:04.410Z,38.77
2019-01-24T17:46:25.653Z,40.50
2019-01-24T17:48:47.180Z,37.27
2019-01-24T17:51:08.605Z,39.80
2019-01-24T17:53:30.199Z,37.63
2019-01-24T17:55:51.415Z,38.90
2019-01-24T17:58:12.660Z,39.17
2019-01-24T18:00:35.790Z,37.87
2019-01-24T18:02:57.007Z,38.27
2019-01-24T18:05:18.310Z,39.43
2019-01-24T18:07:39.734Z,38.43
2019-01-24T18:10:00.981Z,39.20
2019-01-24T18:12:22.337Z,38.20
2019-01-24T18:14:43.563Z,39.13
2019-01-24T18:17:04.766Z,38.97
2019-01-24T18:19:25.984Z,38.77
2019-01-24T18:21:47.205Z,38.63
2019-01-24T18:24:08.421Z,38.70
2019-01-24T18:26:29.609Z,39.20
2019-01-24T18:28:50.813Z,39.47
2019-01-24T18:31:12.028Z,49.00
2019-01-24T18:33:33.255Z,51.40
2019-01-24T18:35:54.524Z,48.27
2019-01-24T18:38:15.772Z,41.87
2019-01-24T18:40:37.054Z,41.77
2019-01-24T18:42:58.356Z,41.10
2019-01-24T18:45:29.003Z,40.37
2019-01-24T18:47:50.346Z,42.43
2019-01-24T18:50:19.737Z,42.77
2019-01-24T18:52:40.935Z,42.07
2019-01-24T18:55:02.760Z,40.53
2019-01-24T18:57:23.966Z,44.07
2019-01-24T18:59:45.692Z,47.03
2019-01-24T19:02:07.135Z,40.97
2019-01-24T19:04:28.422Z,40.80
2019-01-24T19:06:49.687Z,41.77
2019-01-24T19:09:10.912Z,40.80
2019-01-24T19:11:32.119Z,42.10
2019-01-24T19:13:53.330Z,42.57
2019-01-24T19:16:14.547Z,43.33
2019-01-24T19:18:36.042Z,40.80
2019-01-24T19:20:57.453Z,42.77
2019-01-24T19:23:18.711Z,41.37
2019-01-24T19:25:39.988Z,41.10
2019-01-24T19:28:03.204Z,39.00
2019-01-24T19:30:30.599Z,40.80
2019-01-24T19:32:51.816Z,39.43
2019-01-24T19:35:13.159Z,38.93
2019-01-24T19:37:34.377Z,38.90
2019-01-24T19:39:55.580Z,39.77
2019-01-24T19:42:16.919Z,39.60
2019-01-24T19:44:38.146Z,38.73
2019-01-24T19:46:59.371Z,40.57
2019-01-24T19:49:20.594Z,39.67
2019-01-24T19:51:41.838Z,37.73
2019-01-24T19:54:04.256Z,40.97
2019-01-24T19:56:25.566Z,37.77
2019-01-24T19:58:46.797Z,38.93
2019-01-24T20:01:23.720Z,39.23
2019-01-24T20:03:45.001Z,36.43
2019-01-24T20:06:06.294Z,36.30
2019-01-24T20:08:27.494Z,35.23
2019-01-24T20:10:48.691Z,34.30
2019-01-24T20:13:10.313Z,33.87
2019-01-24T20:15:31.792Z,28.60
2019-01-24T20:17:55.482Z,23.47
2019-01-24T20:20:17.391Z,23.40
2019-01-24T20:22:38.746Z,22.33
2019-01-24T20:25:00.118Z,20.83
2019-01-24T20:27:21.786Z,18.80
2019-01-24T20:29:43.234Z,19.30
2019-01-24T20:32:04.485Z,19.27
2019-01-24T20:34:25.872Z,16.67
2019-01-24T20:36:47.171Z,16.10
2019-01-24T20:39:08.406Z,15.80
2019-01-24T20:41:29.929Z,16.03
2019-01-24T20:43:54.274Z,16.70
2019-01-24T20:46:15.501Z,16.33
2019-01-24T20:48:36.722Z,15.03
2019-01-24T20:50:57.933Z,15.03
2019-01-24T20:53:19.129Z,17.00
2019-01-24T20:56:02.414Z,16.47
2019-01-24T20:58:24.008Z,14.33
2019-01-24T21:00:45.285Z,15.20
2019-01-24T21:03:06.516Z,15.80
2019-01-24T21:05:27.718Z,16.07
2019-01-24T21:07:54.766Z,15.00
2019-01-24T21:10:21.798Z,16.07
2019-01-24T21:12:43.001Z,15.70
2019-01-24T21:15:07.394Z,16.00
2019-01-24T21:17:28.678Z,15.67
2019-01-24T21:19:49.866Z,16.37
2019-01-24T21:22:22.344Z,16.27
2019-01-24T21:24:43.661Z,16.73
2019-01-24T21:27:04.878Z,67.70
2019-01-24T21:29:27.164Z,22.20
2019-01-24T21:31:48.399Z,22.37
2019-01-24T21:34:09.583Z,18.87
2019-01-24T21:36:30.816Z,60.50
2019-01-24T21:38:52.036Z,22.20
2019-01-24T21:41:13.236Z,19.67
2019-01-24T21:43:34.738Z,16.73
2019-01-24T21:45:55.995Z,16.70
2019-01-24T21:48:17.225Z,16.83
2019-01-24T21:50:44.511Z,17.07
2019-01-24T21:53:07.032Z,16.67
2019-01-24T21:55:28.668Z,18.37
2019-01-24T21:57:49.966Z,18.40
2019-01-24T22:00:14.281Z,18.43
2019-01-24T22:02:35.615Z,17.83
2019-01-24T22:04:56.814Z,19.13
2019-01-24T22:07:18.018Z,19.20
2019-01-24T22:09:39.278Z,19.70
2019-01-24T22:12:00.582Z,19.43
2019-01-24T22:14:22.879Z,19.60
2019-01-24T22:16:44.101Z,20.47
2019-01-24T22:19:05.402Z,21.40
2019-01-24T22:21:26.722Z,22.27
2019-01-24T22:23:50.034Z,22.63
2019-01-24T22:26:11.235Z,21.23
2019-01-24T22:28:32.466Z,22.17
2019-01-24T22:30:54.770Z,22.57
2019-01-24T22:33:15.999Z,22.93
2019-01-24T22:35:37.182Z,22.03
2019-01-24T22:37:58.411Z,23.63
2019-01-24T22:40:19.615Z,26.67
2019-01-24T22:42:40.931Z,24.33
2019-01-24T22:45:02.384Z,24.93
2019-01-24T22:47:23.586Z,23.63
2019-01-24T22:49:44.806Z,46.00
2019-01-24T22:52:06.027Z,43.87
2019-01-24T22:54:28.050Z,26.10
2019-01-24T22:56:49.314Z,22.70
2019-01-24T22:59:10.504Z,23.30
2019-01-24T23:01:35.527Z,23.60
2019-01-24T23:03:57.164Z,23.23
2019-01-24T23:06:18.380Z,23.43
2019-01-24T23:08:41.842Z,24.57
2019-01-24T23:11:07.538Z,25.10
2019-01-24T23:13:38.052Z,23.87
2019-01-24T23:16:23.946Z,22.73
2019-01-24T23:18:45.151Z,23.33
2019-01-24T23:21:10.510Z,24.53
2019-01-24T23:23:31.776Z,24.17
2019-01-24T23:25:53.059Z,23.37
2019-01-24T23:28:14.871Z,24.63
2019-01-24T23:30:36.124Z,24.57
2019-01-24T23:32:57.321Z,24.27
2019-01-24T23:35:18.542Z,24.20
2019-01-24T23:37:40.007Z,23.70
2019-01-24T23:40:02.515Z,25.47
2019-01-24T23:42:23.718Z,23.07
2019-01-24T23:44:44.946Z,25.07
2019-01-24T23:47:06.141Z,25.17
2019-01-24T23:49:27.355Z,26.13
2019-01-24T23:51:48.559Z,23.90
2019-01-24T23:54:09.768Z,25.33
2019-01-24T23:56:30.963Z,25.93
2019-01-24T23:58:52.180Z,25.03
